Time;durP1;ratioP1;P1;durP2;ratioP2;P2;SDS_P1;SDS_P2;PMS_P1;PMS_P2;Temp;Humidity;BMP_temperature;BMP_pressure;BME280_temperature;BME280_humidity;BME280_pressure;Samples;Min_cycle;Max_cycle;Signal;HPM_P1;HPM_P2
2022/04/28 00:00:28;;;;;;;12.45;6.35;;;;;;;;;;4964583;28;20276;-61
2022/04/28 00:02:53;;;;;;;20.60;7.28;;;;;;;;;;4963369;28;20665;-61
2022/04/28 00:05:19;;;;;;;14.93;6.18;;;;;;;;;;4963941;28;20232;-62
2022/04/28 00:07:44;;;;;;;16.08;6.22;;;;;;;;;;4964670;28;20214;-61
2022/04/28 00:10:09;;;;;;;14.90;6.43;;;;;;;;;;4977934;28;20767;-61
2022/04/28 00:12:35;;;;;;;13.80;5.82;;;;;;;;;;4976024;28;20267;-61
2022/04/28 00:15:00;;;;;;;13.77;6.50;;;;;;;;;;4974768;28;20217;-61
2022/04/28 00:17:25;;;;;;;17.73;6.18;;;;;;;;;;4963328;28;20297;-61
2022/04/28 00:19:51;;;;;;;15.35;6.88;;;;;;;;;;4964012;28;20241;-61
2022/04/28 00:22:17;;;;;;;15.10;6.20;;;;;;;;;;4964050;28;20573;-61
2022/04/28 00:24:42;;;;;;;15.15;6.35;;;;;;;;;;4963378;28;20210;-61
2022/04/28 00:27:08;;;;;;;15.07;5.88;;;;;;;;;;4963852;28;20221;-61
2022/04/28 00:29:34;;;;;;;13.00;5.85;;;;;;;;;;4964103;28;20213;-61
2022/04/28 00:32:00;;;;;;;14.00;6.57;;;;;;;;;;4961989;28;20236;-61
2022/04/28 00:34:25;;;;;;;18.67;6.50;;;;;;;;;;4970501;28;20213;-61
2022/04/28 00:36:50;;;;;;;14.70;6.40;;;;;;;;;;4955944;28;20289;-61
2022/04/28 00:39:16;;;;;;;13.05;6.90;;;;;;;;;;4956709;28;20229;-61
2022/04/28 00:41:41;;;;;;;15.50;6.65;;;;;;;;;;4964096;28;20696;-61
2022/04/28 00:44:10;;;;;;;15.02;6.10;;;;;;;;;;4963714;28;20205;-61
2022/04/28 00:46:36;;;;;;;18.10;6.35;;;;;;;;;;4982437;28;20232;-61
2022/04/28 00:51:45;;;;;;;15.32;6.32;;;;;;;;;;4982905;28;20267;-61
2022/04/28 00:54:10;;;;;;;16.45;6.53;;;;;;;;;;4996555;28;20711;-61
2022/04/28 00:56:35;;;;;;;16.75;7.13;;;;;;;;;;4974642;28;20244;-61
2022/04/28 00:59:02;;;;;;;16.95;6.65;;;;;;;;;;4972133;28;20240;-61
2022/04/28 01:01:28;;;;;;;14.10;7.03;;;;;;;;;;4971279;28;20221;-61
2022/04/28 01:03:54;;;;;;;13.10;6.18;;;;;;;;;;4974440;28;20735;-61
2022/04/28 01:06:19;;;;;;;14.68;6.82;;;;;;;;;;4962588;28;20221;-61
2022/04/28 01:08:44;;;;;;;16.15;6.95;;;;;;;;;;4965666;28;20206;-61
2022/04/28 01:11:09;;;;;;;15.57;7.15;;;;;;;;;;4963050;28;20217;-61
2022/04/28 01:13:35;;;;;;;15.95;7.30;;;;;;;;;;4964229;28;20562;-60
2022/04/28 01:16:01;;;;;;;18.35;7.45;;;;;;;;;;4967334;28;20272;-60
2022/04/28 01:18:26;;;;;;;14.77;7.88;;;;;;;;;;4962653;28;20229;-60
2022/04/28 01:20:51;;;;;;;15.65;7.32;;;;;;;;;;4958755;28;20269;-60
2022/04/28 01:23:18;;;;;;;17.15;7.63;;;;;;;;;;4959113;28;20905;-60
2022/04/28 01:25:43;;;;;;;11.77;7.20;;;;;;;;;;4983126;28;20227;-60
2022/04/28 01:28:08;;;;;;;16.42;6.90;;;;;;;;;;5000076;28;20220;-60
2022/04/28 01:30:36;;;;;;;16.33;7.60;;;;;;;;;;4986591;28;20209;-60
2022/04/28 01:33:01;;;;;;;14.32;6.55;;;;;;;;;;4985581;28;20984;-60
2022/04/28 01:35:26;;;;;;;15.85;7.57;;;;;;;;;;4985797;28;20221;-60
2022/04/28 01:37:52;;;;;;;20.08;7.97;;;;;;;;;;4985846;28;20410;-60
2022/04/28 01:40:17;;;;;;;14.20;7.15;;;;;;;;;;4969065;28;20549;-60
2022/04/28 01:42:43;;;;;;;19.40;7.53;;;;;;;;;;4977563;28;20212;-60
2022/04/28 01:45:09;;;;;;;15.30;7.32;;;;;;;;;;4977408;28;20213;-60
2022/04/28 01:47:34;;;;;;;17.73;6.93;;;;;;;;;;4980549;28;20241;-60
2022/04/28 01:49:59;;;;;;;15.23;7.30;;;;;;;;;;4984922;28;20213;-60
2022/04/28 01:55:08;;;;;;;16.70;7.57;;;;;;;;;;4985400;28;20227;-60
2022/04/28 01:57:34;;;;;;;19.15;8.13;;;;;;;;;;4977213;28;20225;-60
2022/04/28 02:00:00;;;;;;;17.55;8.82;;;;;;;;;;4966417;28;20218;-60
2022/04/28 02:02:25;;;;;;;16.08;7.85;;;;;;;;;;4968650;28;20270;-60
2022/04/28 02:04:50;;;;;;;17.95;7.95;;;;;;;;;;4956810;28;20217;-60
2022/04/28 02:07:16;;;;;;;16.58;7.68;;;;;;;;;;4958121;28;20225;-60
2022/04/28 02:09:41;;;;;;;17.10;8.40;;;;;;;;;;4958609;28;20487;-60
2022/04/28 02:12:07;;;;;;;17.73;8.30;;;;;;;;;;4965711;28;20337;-60
2022/04/28 02:14:32;;;;;;;22.27;8.50;;;;;;;;;;4966715;28;20206;-60
2022/04/28 02:16:57;;;;;;;19.70;8.38;;;;;;;;;;4966491;28;20583;-60
2022/04/28 02:19:23;;;;;;;16.58;8.18;;;;;;;;;;4969321;28;20237;-60
2022/04/28 02:21:48;;;;;;;15.73;7.07;;;;;;;;;;4966195;28;20304;-60
2022/04/28 02:24:14;;;;;;;15.13;7.32;;;;;;;;;;4964711;28;20248;-61
2022/04/28 02:26:39;;;;;;;18.10;7.22;;;;;;;;;;4960617;28;20336;-60
2022/04/28 02:29:04;;;;;;;14.70;7.03;;;;;;;;;;4957978;28;20417;-60
2022/04/28 02:31:30;;;;;;;13.32;6.93;;;;;;;;;;4957834;28;20783;-60
2022/04/28 02:33:55;;;;;;;13.55;6.70;;;;;;;;;;4963508;28;20214;-60
2022/04/28 02:36:20;;;;;;;11.95;6.68;;;;;;;;;;4965302;28;20229;-60
2022/04/28 02:38:45;;;;;;;16.35;7.22;;;;;;;;;;4965782;28;20256;-60
2022/04/28 02:41:11;;;;;;;14.80;6.45;;;;;;;;;;4965589;28;20210;-60
2022/04/28 02:43:36;;;;;;;15.70;6.78;;;;;;;;;;4966152;28;20218;-60
2022/04/28 02:46:01;;;;;;;15.20;6.80;;;;;;;;;;4964792;28;20214;-60
2022/04/28 02:48:26;;;;;;;16.27;6.88;;;;;;;;;;4963057;28;20720;-60
2022/04/28 02:50:52;;;;;;;16.63;6.63;;;;;;;;;;4957927;28;20300;-60
2022/04/28 02:53:17;;;;;;;16.00;7.10;;;;;;;;;;4956625;28;20726;-60
2022/04/28 02:55:43;;;;;;;16.30;6.63;;;;;;;;;;4960595;28;20246;-60
2022/04/28 02:58:08;;;;;;;13.55;6.25;;;;;;;;;;4965424;28;20231;-60
2022/04/28 03:00:34;;;;;;;15.32;6.45;;;;;;;;;;4965341;28;20242;-60
2022/04/28 03:02:59;;;;;;;13.95;6.97;;;;;;;;;;4965816;28;20237;-60
2022/04/28 03:05:24;;;;;;;16.85;7.13;;;;;;;;;;4965289;28;20210;-60
2022/04/28 03:10:49;;;;;;;17.77;7.30;;;;;;;;;;4982746;28;20308;-60
2022/04/28 03:13:14;;;;;;;19.45;7.50;;;;;;;;;;4975955;28;20773;-60
2022/04/28 03:15:39;;;;;;;15.60;6.93;;;;;;;;;;4975634;28;20213;-60
2022/04/28 03:18:05;;;;;;;15.48;7.10;;;;;;;;;;4959004;28;20587;-60
2022/04/28 03:20:30;;;;;;;15.35;6.53;;;;;;;;;;4964194;28;20217;-60
2022/04/28 03:22:55;;;;;;;13.38;6.38;;;;;;;;;;4965496;28;20241;-60
2022/04/28 03:25:21;;;;;;;14.90;6.70;;;;;;;;;;4964648;28;20638;-60
2022/04/28 03:27:46;;;;;;;14.43;7.40;;;;;;;;;;4964548;28;20256;-60
2022/04/28 03:30:11;;;;;;;17.23;7.10;;;;;;;;;;4964503;28;20687;-60
2022/04/28 03:32:37;;;;;;;14.93;6.82;;;;;;;;;;4965260;28;20272;-60
2022/04/28 03:35:02;;;;;;;13.77;7.50;;;;;;;;;;4956825;28;20819;-60
2022/04/28 03:37:28;;;;;;;16.50;7.07;;;;;;;;;;4956738;28;20244;-59
2022/04/28 03:39:53;;;;;;;17.13;7.15;;;;;;;;;;4965459;28;20684;-60
2022/04/28 03:42:18;;;;;;;13.80;7.90;;;;;;;;;;4961945;28;20226;-59
2022/04/28 03:44:44;;;;;;;16.02;7.07;;;;;;;;;;4965107;28;20629;-60
2022/04/28 03:47:09;;;;;;;15.18;7.32;;;;;;;;;;4964316;28;20276;-60
2022/04/28 03:49:34;;;;;;;18.13;7.13;;;;;;;;;;4963699;28;20229;-60
2022/04/28 03:51:59;;;;;;;15.48;7.13;;;;;;;;;;4964408;28;20249;-60
2022/04/28 03:54:25;;;;;;;17.63;6.93;;;;;;;;;;4964108;28;20214;-60
2022/04/28 03:56:50;;;;;;;14.65;7.60;;;;;;;;;;4959873;28;20225;-59
2022/04/28 03:59:15;;;;;;;18.45;7.63;;;;;;;;;;4956388;28;20230;-60
2022/04/28 04:01:40;;;;;;;16.13;7.45;;;;;;;;;;4956969;28;20216;-60
2022/04/28 04:04:06;;;;;;;18.75;7.85;;;;;;;;;;4959563;28;20264;-60
2022/04/28 04:06:31;;;;;;;18.15;8.13;;;;;;;;;;4964282;28;20229;-59
2022/04/28 04:08:57;;;;;;;13.93;7.40;;;;;;;;;;4963798;28;20673;-60
2022/04/28 04:11:22;;;;;;;16.40;7.82;;;;;;;;;;4963846;28;20218;-59
2022/04/28 04:13:47;;;;;;;18.00;7.30;;;;;;;;;;4964691;28;20688;-60
2022/04/28 04:16:12;;;;;;;17.45;8.07;;;;;;;;;;4963847;28;20590;-60
2022/04/28 04:18:38;;;;;;;18.50;8.63;;;;;;;;;;4977554;28;20693;-59
2022/04/28 04:21:03;;;;;;;18.63;7.93;;;;;;;;;;4960703;28;20209;-60
2022/04/28 04:23:29;;;;;;;17.90;7.53;;;;;;;;;;4955290;28;20205;-59
2022/04/28 04:25:54;;;;;;;14.20;7.97;;;;;;;;;;4956941;28;20220;-60
2022/04/28 04:28:19;;;;;;;13.95;7.35;;;;;;;;;;4963320;28;22547;-60
2022/04/28 04:33:28;;;;;;;17.67;7.13;;;;;;;;;;4982367;28;20324;-59
2022/04/28 04:35:54;;;;;;;18.20;7.13;;;;;;;;;;4984613;28;20213;-59
2022/04/28 04:38:19;;;;;;;19.05;6.90;;;;;;;;;;4954945;28;20234;-60
2022/04/28 04:40:44;;;;;;;16.83;6.87;;;;;;;;;;4956355;28;20202;-60
2022/04/28 04:43:13;;;;;;;15.30;6.93;;;;;;;;;;4956310;28;20244;-60
2022/04/28 04:45:42;;;;;;;19.05;6.95;;;;;;;;;;4982317;28;20204;-60
2022/04/28 04:48:08;;;;;;;17.30;7.68;;;;;;;;;;4982766;28;20288;-60
2022/04/28 04:50:34;;;;;;;13.70;6.65;;;;;;;;;;4982951;28;20680;-60
2022/04/28 04:52:59;;;;;;;17.00;6.95;;;;;;;;;;4982517;28;20227;-60
2022/04/28 04:55:24;;;;;;;18.17;6.22;;;;;;;;;;4982359;28;20776;-60
2022/04/28 04:57:49;;;;;;;18.52;6.90;;;;;;;;;;4972263;28;20233;-60
2022/04/28 05:00:15;;;;;;;14.63;7.20;;;;;;;;;;4956868;28;20322;-60
2022/04/28 05:02:40;;;;;;;15.52;6.18;;;;;;;;;;4955843;28;20225;-60
2022/04/28 05:05:06;;;;;;;15.63;6.05;;;;;;;;;;4955114;28;20308;-60
2022/04/28 05:07:32;;;;;;;15.63;6.38;;;;;;;;;;4960999;28;20268;-60
2022/04/28 05:09:57;;;;;;;14.32;6.40;;;;;;;;;;4963900;28;20215;-59
2022/04/28 05:12:22;;;;;;;14.93;5.78;;;;;;;;;;4962349;28;20220;-59
2022/04/28 05:14:48;;;;;;;15.10;5.85;;;;;;;;;;4963812;28;20809;-59
2022/04/28 05:17:13;;;;;;;13.73;5.78;;;;;;;;;;4968733;28;20218;-59
2022/04/28 05:19:39;;;;;;;15.10;6.15;;;;;;;;;;4962508;28;20670;-59
2022/04/28 05:22:04;;;;;;;13.18;5.80;;;;;;;;;;4978539;28;20292;-60
2022/04/28 05:24:29;;;;;;;11.32;5.57;;;;;;;;;;4974971;28;20229;-60
2022/04/28 05:26:55;;;;;;;15.77;6.03;;;;;;;;;;4978798;28;20209;-59
2022/04/28 05:29:20;;;;;;;14.02;5.60;;;;;;;;;;4990499;28;20221;-73
2022/04/28 05:31:45;;;;;;;10.00;4.40;;;;;;;;;;4992762;28;20223;-59
2022/04/28 05:34:11;;;;;;;13.80;6.07;;;;;;;;;;4990599;28;20428;-58
2022/04/28 05:36:36;;;;;;;13.15;5.15;;;;;;;;;;4992829;28;20304;-60
2022/04/28 05:39:02;;;;;;;13.95;5.68;;;;;;;;;;4992281;28;20217;-61
2022/04/28 05:41:27;;;;;;;10.88;4.70;;;;;;;;;;4991979;28;20637;-60
2022/04/28 05:46:36;;;;;;;15.68;5.10;;;;;;;;;;4991769;28;20216;-61
2022/04/28 05:49:02;;;;;;;11.82;4.85;;;;;;;;;;4991518;28;20572;-60
2022/04/28 05:51:27;;;;;;;13.48;5.45;;;;;;;;;;4992539;28;20288;-60
2022/04/28 05:53:52;;;;;;;10.32;4.93;;;;;;;;;;4992547;28;20676;-59
2022/04/28 05:56:17;;;;;;;12.82;5.40;;;;;;;;;;4991364;28;20268;-59
2022/04/28 05:58:43;;;;;;;12.55;5.65;;;;;;;;;;4992274;28;20225;-61
2022/04/28 06:01:08;;;;;;;12.07;5.70;;;;;;;;;;4995424;28;20213;-59
2022/04/28 06:03:33;;;;;;;14.27;5.72;;;;;;;;;;4995628;28;20209;-60
2022/04/28 06:05:59;;;;;;;12.88;5.78;;;;;;;;;;4995749;28;20342;-60
2022/04/28 06:08:24;;;;;;;11.38;5.18;;;;;;;;;;4994955;28;20213;-60
2022/04/28 06:10:49;;;;;;;16.15;5.57;;;;;;;;;;4995697;28;20209;-61
2022/04/28 06:13:15;;;;;;;15.18;5.70;;;;;;;;;;4995294;28;20754;-62
2022/04/28 06:15:40;;;;;;;12.88;5.50;;;;;;;;;;4994829;28;20217;-60
2022/04/28 06:18:06;;;;;;;14.65;5.70;;;;;;;;;;4995049;28;20228;-61
2022/04/28 06:20:31;;;;;;;14.30;5.65;;;;;;;;;;4994984;28;20668;-70
2022/04/28 06:22:57;;;;;;;11.52;5.25;;;;;;;;;;4995184;28;20291;-71
2022/04/28 06:25:23;;;;;;;13.73;5.15;;;;;;;;;;4995484;28;20217;-70
2022/04/28 06:27:49;;;;;;;12.38;4.97;;;;;;;;;;4995118;28;20662;-60
2022/04/28 06:30:14;;;;;;;11.00;4.95;;;;;;;;;;4994055;28;20296;-61
2022/04/28 06:32:40;;;;;;;13.25;5.20;;;;;;;;;;4995397;28;20674;-61
2022/04/28 06:35:07;;;;;;;11.98;4.88;;;;;;;;;;4994731;28;20205;-61
2022/04/28 06:37:32;;;;;;;11.73;5.18;;;;;;;;;;4995293;28;20303;-60
2022/04/28 06:39:57;;;;;;;9.48;4.10;;;;;;;;;;4996629;28;20716;-61
2022/04/28 06:42:23;;;;;;;12.35;5.03;;;;;;;;;;4993241;28;20220;-61
2022/04/28 06:44:48;;;;;;;15.80;4.95;;;;;;;;;;4994211;28;20725;-61
2022/04/28 06:47:13;;;;;;;15.40;4.70;;;;;;;;;;4994993;28;20688;-60
2022/04/28 06:49:39;;;;;;;14.00;4.85;;;;;;;;;;4995242;28;20220;-61
2022/04/28 06:52:04;;;;;;;14.02;5.38;;;;;;;;;;4992031;28;20711;-61
2022/04/28 06:54:30;;;;;;;10.85;4.35;;;;;;;;;;4994451;28;20217;-60
2022/04/28 06:56:55;;;;;;;12.70;4.72;;;;;;;;;;4994088;28;20561;-61
2022/04/28 06:59:20;;;;;;;14.90;4.32;;;;;;;;;;4993049;28;20229;-60
2022/04/28 07:01:46;;;;;;;11.52;4.90;;;;;;;;;;4995005;28;20673;-61
2022/04/28 07:04:11;;;;;;;10.05;4.82;;;;;;;;;;4994735;28;20213;-60
2022/04/28 07:06:36;;;;;;;10.77;4.75;;;;;;;;;;4993963;28;20213;-60
2022/04/28 07:09:02;;;;;;;14.23;4.40;;;;;;;;;;4994290;28;20295;-60
2022/04/28 07:11:27;;;;;;;12.10;4.40;;;;;;;;;;4993779;28;20287;-61
2022/04/28 07:13:52;;;;;;;12.45;5.25;;;;;;;;;;4993694;28;20579;-61
2022/04/28 07:16:18;;;;;;;9.43;4.95;;;;;;;;;;4993907;28;20217;-60
2022/04/28 07:18:43;;;;;;;11.60;4.07;;;;;;;;;;4991673;28;20303;-60
2022/04/28 07:21:08;;;;;;;12.10;4.43;;;;;;;;;;4993272;28;20209;-60
2022/04/28 07:23:33;;;;;;;17.02;5.47;;;;;;;;;;4994604;28;20272;-60
2022/04/28 07:25:59;;;;;;;13.15;4.65;;;;;;;;;;4993063;28;20296;-61
2022/04/28 07:28:24;;;;;;;11.63;4.88;;;;;;;;;;4993602;28;20213;-60
2022/04/28 07:30:49;;;;;;;13.80;4.93;;;;;;;;;;4992436;28;20217;-60
2022/04/28 07:33:15;;;;;;;12.18;4.90;;;;;;;;;;4992737;28;20313;-61
2022/04/28 07:35:40;;;;;;;11.20;4.45;;;;;;;;;;4993772;28;20672;-60
2022/04/28 07:38:05;;;;;;;10.77;4.07;;;;;;;;;;4993651;28;20280;-60
2022/04/28 07:40:31;;;;;;;13.30;4.80;;;;;;;;;;4993217;28;20205;-61
2022/04/28 07:42:57;;;;;;;13.32;4.72;;;;;;;;;;4994310;28;20626;-61
2022/04/28 07:45:22;;;;;;;15.02;4.32;;;;;;;;;;4991446;28;20676;-60
2022/04/28 07:47:49;;;;;;;11.82;4.22;;;;;;;;;;4991689;28;20205;-60
2022/04/28 07:50:14;;;;;;;9.98;4.03;;;;;;;;;;4991492;28;20209;-61
2022/04/28 07:52:39;;;;;;;11.27;4.10;;;;;;;;;;4991826;28;20209;-61
2022/04/28 07:55:05;;;;;;;12.77;5.15;;;;;;;;;;4990878;28;20217;-60
2022/04/28 07:57:30;;;;;;;9.38;3.80;;;;;;;;;;4991551;28;20596;-60
2022/04/28 07:59:55;;;;;;;11.35;3.78;;;;;;;;;;4991632;28;20209;-60
2022/04/28 08:02:21;;;;;;;10.85;3.97;;;;;;;;;;4990673;28;20217;-61
2022/04/28 08:04:46;;;;;;;8.50;3.50;;;;;;;;;;4991891;28;20229;-61
2022/04/28 08:07:11;;;;;;;10.55;3.58;;;;;;;;;;4991202;28;20209;-61
2022/04/28 08:09:36;;;;;;;14.88;4.28;;;;;;;;;;4990866;28;20280;-61
2022/04/28 08:12:02;;;;;;;18.58;8.55;;;;;;;;;;4991204;28;20225;-60
2022/04/28 08:14:28;;;;;;;14.75;4.00;;;;;;;;;;4991610;28;20221;-61
2022/04/28 08:16:53;;;;;;;16.42;9.68;;;;;;;;;;4990908;28;20213;-60
2022/04/28 08:19:19;;;;;;;13.57;4.63;;;;;;;;;;4989683;28;20240;-61
2022/04/28 08:21:44;;;;;;;10.10;3.90;;;;;;;;;;4991053;28;20633;-60
2022/04/28 08:24:10;;;;;;;10.00;3.78;;;;;;;;;;4990236;28;20221;-60
2022/04/28 08:26:35;;;;;;;9.07;4.47;;;;;;;;;;4991363;28;20297;-60
2022/04/28 08:29:00;;;;;;;12.32;4.63;;;;;;;;;;4989743;28;20632;-61
2022/04/28 08:31:26;;;;;;;10.52;3.85;;;;;;;;;;4990387;28;20221;-60
2022/04/28 08:33:51;;;;;;;10.80;3.85;;;;;;;;;;4991497;28;20205;-60
2022/04/28 08:36:16;;;;;;;10.23;3.70;;;;;;;;;;4989887;28;20213;-60
2022/04/28 08:38:42;;;;;;;12.73;3.47;;;;;;;;;;4991010;28;20221;-60
2022/04/28 08:41:08;;;;;;;10.43;3.95;;;;;;;;;;4990860;28;20235;-61
2022/04/28 08:43:34;;;;;;;12.90;3.67;;;;;;;;;;4990646;28;20215;-60
2022/04/28 08:48:48;;;;;;;12.02;4.15;;;;;;;;;;4990924;28;20243;-60
2022/04/28 08:51:13;;;;;;;9.55;3.63;;;;;;;;;;4989605;28;20660;-60
2022/04/28 08:53:38;;;;;;;10.88;4.07;;;;;;;;;;4990917;28;20220;-61
2022/04/28 08:56:04;;;;;;;11.20;3.97;;;;;;;;;;4990665;28;20220;-60
2022/04/28 08:58:29;;;;;;;10.30;3.63;;;;;;;;;;4989057;28;20225;-60
2022/04/28 09:00:55;;;;;;;17.20;4.22;;;;;;;;;;4990779;28;20212;-60
2022/04/28 09:03:20;;;;;;;12.85;5.18;;;;;;;;;;4990533;28;20236;-61
2022/04/28 09:05:46;;;;;;;12.05;4.35;;;;;;;;;;4989935;28;20220;-60
2022/04/28 09:08:12;;;;;;;12.07;4.43;;;;;;;;;;4990633;28;20220;-61
2022/04/28 09:10:37;;;;;;;13.40;4.30;;;;;;;;;;4991015;28;20308;-60
2022/04/28 09:15:48;;;;;;;8.60;4.00;;;;;;;;;;4990821;28;20212;-60
2022/04/28 09:18:14;;;;;;;11.52;4.93;;;;;;;;;;4990411;28;20225;-60
2022/04/28 09:20:41;;;;;;;11.68;4.38;;;;;;;;;;4989770;28;20224;-60
2022/04/28 09:23:06;;;;;;;12.73;4.75;;;;;;;;;;4989163;28;20587;-60
2022/04/28 09:25:31;;;;;;;11.70;4.38;;;;;;;;;;4988596;28;20211;-60
2022/04/28 09:27:59;;;;;;;12.77;4.47;;;;;;;;;;4990941;28;20217;-60
2022/04/28 09:30:26;;;;;;;11.98;4.30;;;;;;;;;;4990205;28;20288;-60
2022/04/28 09:32:51;;;;;;;10.13;4.65;;;;;;;;;;4989901;28;20217;-60
2022/04/28 09:35:17;;;;;;;10.27;4.43;;;;;;;;;;4991980;28;20556;-60
2022/04/28 09:37:43;;;;;;;9.70;3.80;;;;;;;;;;4994243;28;20735;-60
2022/04/28 09:42:52;;;;;;;12.25;4.65;;;;;;;;;;4994522;28;20580;-60
2022/04/28 09:45:20;;;;;;;12.05;4.72;;;;;;;;;;4993921;28;20209;-60
2022/04/28 09:47:45;;;;;;;13.25;4.30;;;;;;;;;;4992158;28;20213;-60
2022/04/28 09:50:12;;;;;;;12.15;4.07;;;;;;;;;;4993713;28;20205;-60
2022/04/28 09:52:39;;;;;;;13.38;4.22;;;;;;;;;;4994184;28;20314;-60
2022/04/28 09:55:04;;;;;;;10.52;4.93;;;;;;;;;;4993175;28;20216;-60
2022/04/28 09:57:30;;;;;;;8.43;4.70;;;;;;;;;;4993816;28;20221;-60
2022/04/28 09:59:56;;;;;;;12.05;4.20;;;;;;;;;;4994004;28;20541;-60
2022/04/28 10:02:23;;;;;;;11.85;4.15;;;;;;;;;;4992389;28;20631;-60
2022/04/28 10:04:49;;;;;;;9.48;3.80;;;;;;;;;;4992787;28;20213;-60
2022/04/28 10:07:14;;;;;;;14.77;4.80;;;;;;;;;;4993542;28;20213;-60
2022/04/28 10:09:41;;;;;;;9.68;4.25;;;;;;;;;;4993151;28;20333;-59
2022/04/28 10:12:06;;;;;;;10.80;4.70;;;;;;;;;;4993332;28;20215;-60
2022/04/28 10:14:33;;;;;;;9.23;4.25;;;;;;;;;;4993920;28;20296;-60
2022/04/28 10:16:58;;;;;;;13.52;4.60;;;;;;;;;;4993072;28;20217;-60
2022/04/28 10:19:24;;;;;;;10.00;4.43;;;;;;;;;;4993030;28;20228;-60
2022/04/28 10:21:52;;;;;;;11.43;4.80;;;;;;;;;;4992858;28;20585;-60
2022/04/28 10:32:50;;;;;;;10.55;5.00;;;;;;;;;;4993068;28;20263;-60
2022/04/28 10:35:15;;;;;;;10.90;5.00;;;;;;;;;;4993014;28;20232;-60
2022/04/28 10:37:41;;;;;;;9.43;5.32;;;;;;;;;;4992626;28;20213;-60
2022/04/28 10:40:08;;;;;;;10.93;4.80;;;;;;;;;;4992731;28;20212;-60
2022/04/28 10:42:33;;;;;;;11.80;4.85;;;;;;;;;;4991912;28;20271;-60
2022/04/28 10:45:00;;;;;;;10.32;5.28;;;;;;;;;;4992478;28;20213;-60
2022/04/28 10:47:30;;;;;;;10.07;5.00;;;;;;;;;;4992984;28;20209;-61
2022/04/28 10:49:55;;;;;;;11.27;5.20;;;;;;;;;;4992140;28;20660;-60
2022/04/28 10:52:22;;;;;;;12.63;5.28;;;;;;;;;;4992507;28;20232;-60
2022/04/28 10:54:50;;;;;;;9.85;4.70;;;;;;;;;;4993221;28;20212;-60
2022/04/28 10:57:15;;;;;;;13.40;5.03;;;;;;;;;;4991627;28;20225;-60
2022/04/28 10:59:41;;;;;;;14.05;5.25;;;;;;;;;;4992950;28;20252;-61
2022/04/28 11:02:07;;;;;;;10.43;5.75;;;;;;;;;;4992599;28;20970;-60
2022/04/28 11:04:32;;;;;;;11.45;4.90;;;;;;;;;;4990598;28;20580;-59
2022/04/28 11:06:58;;;;;;;11.77;5.57;;;;;;;;;;4992859;28;20424;-60
2022/04/28 11:09:33;;;;;;;15.70;5.03;;;;;;;;;;4992376;28;20221;-60
2022/04/28 11:12:08;;;;;;;11.07;5.35;;;;;;;;;;4992097;28;20279;-60
2022/04/28 11:14:46;;;;;;;10.70;4.85;;;;;;;;;;4992488;28;20549;-60
2022/04/28 11:17:11;;;;;;;10.70;4.65;;;;;;;;;;4992197;28;20300;-60
2022/04/28 11:19:36;;;;;;;10.27;4.88;;;;;;;;;;4991430;28;20304;-60
2022/04/28 11:22:02;;;;;;;11.88;5.10;;;;;;;;;;4992168;28;20233;-60
2022/04/28 11:24:28;;;;;;;11.90;5.50;;;;;;;;;;4992650;28;20220;-60
2022/04/28 11:26:55;;;;;;;10.60;4.93;;;;;;;;;;4991713;28;20213;-60
2022/04/28 11:29:22;;;;;;;12.82;5.20;;;;;;;;;;4991956;28;20576;-60
2022/04/28 11:31:47;;;;;;;11.05;5.05;;;;;;;;;;4992283;28;20263;-60
2022/04/28 11:34:12;;;;;;;11.90;5.68;;;;;;;;;;4991035;28;20213;-60
2022/04/28 11:36:41;;;;;;;9.68;5.50;;;;;;;;;;4992263;28;20213;-60
2022/04/28 11:39:08;;;;;;;9.43;5.10;;;;;;;;;;4990633;28;20221;-60
2022/04/28 11:41:34;;;;;;;10.68;4.90;;;;;;;;;;4991024;28;20209;-59
2022/04/28 11:44:00;;;;;;;12.02;5.03;;;;;;;;;;4992081;28;20578;-59
2022/04/28 11:46:26;;;;;;;11.63;5.07;;;;;;;;;;4991252;28;20205;-60
2022/04/28 11:48:51;;;;;;;11.25;5.90;;;;;;;;;;4990750;28;20208;-60
2022/04/28 11:51:20;;;;;;;11.10;5.70;;;;;;;;;;4991401;28;20255;-60
2022/04/28 11:53:46;;;;;;;9.45;5.32;;;;;;;;;;4991305;28;20279;-60
2022/04/28 11:56:13;;;;;;;11.77;5.00;;;;;;;;;;4991458;28;20739;-60
2022/04/28 11:58:38;;;;;;;10.38;5.68;;;;;;;;;;4991063;28;20356;-60
2022/04/28 12:01:03;;;;;;;13.13;5.57;;;;;;;;;;4990667;28;20288;-60
2022/04/28 12:03:30;;;;;;;8.30;4.47;;;;;;;;;;4991576;28;20312;-60
2022/04/28 12:05:56;;;;;;;9.93;4.53;;;;;;;;;;4991709;28;20260;-59
2022/04/28 12:08:22;;;;;;;11.05;4.38;;;;;;;;;;4989228;28;20812;-59
2022/04/28 12:16:15;;;;;;;9.18;4.43;;;;;;;;;;4990427;28;20628;-60
2022/04/28 12:21:32;;;;;;;11.48;4.70;;;;;;;;;;4990266;28;20260;-60
2022/04/28 12:23:58;;;;;;;14.10;4.35;;;;;;;;;;4991517;28;20201;-59
2022/04/28 12:26:24;;;;;;;10.85;5.10;;;;;;;;;;4991104;28;20220;-60
2022/04/28 12:28:50;;;;;;;13.38;6.75;;;;;;;;;;4990649;28;20333;-59
2022/04/28 12:31:15;;;;;;;11.93;5.47;;;;;;;;;;4991023;28;20280;-59
2022/04/28 12:33:41;;;;;;;11.25;5.78;;;;;;;;;;4991224;28;20209;-60
2022/04/28 12:36:07;;;;;;;9.68;4.72;;;;;;;;;;4989931;28;20201;-60
2022/04/28 12:38:35;;;;;;;11.95;5.20;;;;;;;;;;4991044;28;20220;-60
2022/04/28 12:41:13;;;;;;;10.52;5.43;;;;;;;;;;4990740;28;20235;-61
2022/04/28 12:43:39;;;;;;;8.38;5.10;;;;;;;;;;4989339;28;20336;-60
2022/04/28 12:46:06;;;;;;;11.52;5.03;;;;;;;;;;4990934;28;20744;-60
2022/04/28 12:48:32;;;;;;;8.68;4.97;;;;;;;;;;4991095;28;20209;-60
2022/04/28 12:51:08;;;;;;;12.70;5.75;;;;;;;;;;4990258;28;20235;-59
2022/04/28 12:53:34;;;;;;;12.05;6.05;;;;;;;;;;4990799;28;20672;-60
2022/04/28 12:56:01;;;;;;;14.20;6.10;;;;;;;;;;4991122;28;20255;-60
2022/04/28 12:58:26;;;;;;;10.65;5.50;;;;;;;;;;4989883;28;20221;-60
2022/04/28 13:00:51;;;;;;;11.88;5.20;;;;;;;;;;4991002;28;20547;-60
2022/04/28 13:03:26;;;;;;;8.35;5.05;;;;;;;;;;4990564;28;20204;-60
2022/04/28 13:05:51;;;;;;;12.13;5.50;;;;;;;;;;4991074;28;20207;-60
2022/04/28 13:08:16;;;;;;;10.52;5.47;;;;;;;;;;4990888;28;20217;-60
2022/04/28 13:10:43;;;;;;;9.93;5.53;;;;;;;;;;4994311;28;20625;-60
2022/04/28 13:13:09;;;;;;;10.05;5.40;;;;;;;;;;4994634;28;20212;-60
2022/04/28 13:15:34;;;;;;;15.95;8.85;;;;;;;;;;4995274;28;20213;-60
2022/04/28 13:17:59;;;;;;;12.20;6.18;;;;;;;;;;4994091;28;20255;-60
2022/04/28 13:20:24;;;;;;;14.70;7.10;;;;;;;;;;4994479;28;20576;-60
2022/04/28 13:22:50;;;;;;;11.60;6.20;;;;;;;;;;4994691;28;20209;-60
2022/04/28 13:25:16;;;;;;;19.95;10.60;;;;;;;;;;4993649;28;20742;-60
2022/04/28 13:27:41;;;;;;;10.30;6.50;;;;;;;;;;4994817;28;20209;-60
2022/04/28 13:30:07;;;;;;;13.55;6.05;;;;;;;;;;4993970;28;20263;-60
2022/04/28 13:32:32;;;;;;;11.23;5.65;;;;;;;;;;4994076;28;20212;-60
2022/04/28 13:34:58;;;;;;;10.63;5.97;;;;;;;;;;4994459;28;20212;-60
2022/04/28 13:37:23;;;;;;;12.02;6.10;;;;;;;;;;4993880;28;20208;-60
2022/04/28 13:39:48;;;;;;;11.48;5.70;;;;;;;;;;4993392;28;20227;-60
2022/04/28 13:42:13;;;;;;;14.63;5.88;;;;;;;;;;4994062;28;20213;-60
2022/04/28 13:44:40;;;;;;;9.27;5.57;;;;;;;;;;4994525;28;20351;-60
2022/04/28 13:47:06;;;;;;;12.60;6.32;;;;;;;;;;4993408;28;20213;-60
2022/04/28 13:49:31;;;;;;;13.18;6.57;;;;;;;;;;4994123;28;20209;-60
2022/04/28 13:51:56;;;;;;;11.05;6.63;;;;;;;;;;4994281;28;20220;-60
2022/04/28 13:54:21;;;;;;;13.55;6.97;;;;;;;;;;4992925;28;20223;-59
2022/04/28 13:56:47;;;;;;;13.20;6.38;;;;;;;;;;4994022;28;20241;-60
2022/04/28 13:59:12;;;;;;;13.90;6.30;;;;;;;;;;4993493;28;20586;-60
2022/04/28 14:01:38;;;;;;;15.93;5.80;;;;;;;;;;4993295;28;20340;-60
2022/04/28 14:04:03;;;;;;;14.23;5.82;;;;;;;;;;4993585;28;20237;-60
2022/04/28 14:06:29;;;;;;;13.02;6.07;;;;;;;;;;4994205;28;20458;-60
2022/04/28 14:08:54;;;;;;;11.30;4.90;;;;;;;;;;4992831;28;20210;-59
2022/04/28 14:11:19;;;;;;;9.98;5.25;;;;;;;;;;4993652;28;20254;-59
2022/04/28 14:13:46;;;;;;;12.95;5.53;;;;;;;;;;4993160;28;20672;-60
2022/04/28 14:16:11;;;;;;;11.00;6.18;;;;;;;;;;4993304;28;20355;-60
2022/04/28 14:18:37;;;;;;;13.93;7.00;;;;;;;;;;4993559;28;20748;-60
2022/04/28 14:21:03;;;;;;;13.57;6.90;;;;;;;;;;4992051;28;20217;-60
2022/04/28 14:23:29;;;;;;;13.75;6.47;;;;;;;;;;4993661;28;20220;-60
2022/04/28 14:25:54;;;;;;;11.05;6.80;;;;;;;;;;4993610;28;20213;-60
2022/04/28 14:28:20;;;;;;;12.52;7.28;;;;;;;;;;4992526;28;20267;-60
2022/04/28 14:30:46;;;;;;;12.52;6.90;;;;;;;;;;4993538;28;20561;-60
2022/04/28 14:33:11;;;;;;;12.73;6.88;;;;;;;;;;4993045;28;20205;-60
2022/04/28 14:35:36;;;;;;;12.63;6.43;;;;;;;;;;4992851;28;20636;-60
2022/04/28 14:38:02;;;;;;;9.73;5.97;;;;;;;;;;4992827;28;20201;-60
2022/04/28 14:40:28;;;;;;;13.23;6.95;;;;;;;;;;4993079;28;20303;-60
2022/04/28 14:42:53;;;;;;;15.65;6.65;;;;;;;;;;4992880;28;20213;-60
2022/04/28 14:45:18;;;;;;;13.05;4.85;;;;;;;;;;4992867;28;20304;-60
2022/04/28 14:47:43;;;;;;;12.13;5.97;;;;;;;;;;4993319;28;20271;-60
2022/04/28 14:52:53;;;;;;;10.43;5.95;;;;;;;;;;4993197;28;20758;-60
2022/04/28 14:55:19;;;;;;;14.65;6.78;;;;;;;;;;4992097;28;20440;-60
2022/04/28 14:57:46;;;;;;;11.55;5.95;;;;;;;;;;4993328;28;20233;-60
2022/04/28 15:00:19;;;;;;;11.88;6.25;;;;;;;;;;4993812;28;20264;-60
2022/04/28 15:02:45;;;;;;;12.27;5.50;;;;;;;;;;4975234;28;20512;-60